Time;durP1;ratioP1;P1;durP2;ratioP2;P2;SDS_P1;SDS_P2;PMS_P1;PMS_P2;Temp;Humidity;BMP_temperature;BMP_pressure;BME280_temperature;BME280_humidity;BME280_pressure;Samples;Min_cycle;Max_cycle;Signal;HPM_P1;HPM_P2
2023/01/31 00:01:27;;;;;;;4.80;2.15;;;25.80;99.90;;;;;;5056827;28;20048;-70
2023/01/31 00:03:57;;;;;;;3.70;2.17;;;25.80;99.90;;;;;;5055617;28;20035;-64
2023/01/31 00:06:29;;;;;;;5.10;2.20;;;25.70;99.90;;;;;;4699122;28;10000681;-70
2023/01/31 00:08:58;;;;;;;4.38;2.42;;;25.60;99.90;;;;;;5050425;28;20100;-66
2023/01/31 00:11:27;;;;;;;5.80;2.10;;;25.50;99.90;;;;;;5043573;28;20044;-64
2023/01/31 00:13:54;;;;;;;6.90;2.50;;;25.50;99.90;;;;;;5052837;28;20024;-70
2023/01/31 00:16:22;;;;;;;4.15;2.00;;;25.50;99.90;;;;;;5050904;28;20128;-70
2023/01/31 00:18:49;;;;;;;8.93;2.20;;;25.40;99.90;;;;;;5050542;28;20083;-68
2023/01/31 00:21:25;;;;;;;8.50;2.70;;;25.30;99.90;;;;;;5054083;28;20175;-69
2023/01/31 00:23:53;;;;;;;3.70;1.98;;;25.30;99.90;;;;;;5050534;28;20103;-71
2023/01/31 00:26:25;;;;;;;2.47;1.65;;;25.30;99.90;;;;;;5050498;28;20028;-69
2023/01/31 00:28:54;;;;;;;3.67;1.88;;;25.30;99.90;;;;;;5050734;28;20072;-62
2023/01/31 00:31:23;;;;;;;5.88;1.80;;;25.40;99.90;;;;;;5051083;28;20438;-66
2023/01/31 00:33:52;;;;;;;8.57;2.45;;;25.60;99.90;;;;;;5047585;28;20072;-70
2023/01/31 00:36:21;;;;;;;3.85;1.92;;;25.70;99.90;;;;;;5034556;28;20448;-64
2023/01/31 00:38:50;;;;;;;3.90;2.17;;;25.80;99.90;;;;;;5051198;28;20074;-68
2023/01/31 00:41:21;;;;;;;4.07;1.98;;;26.00;99.90;;;;;;5052118;28;20044;-64
2023/01/31 00:43:49;;;;;;;5.32;2.03;;;25.90;99.90;;;;;;5054050;28;20123;-69
2023/01/31 00:46:19;;;;;;;3.38;1.92;;;26.00;99.90;;;;;;5049773;28;20037;-62
2023/01/31 00:48:46;;;;;;;6.55;2.30;;;26.10;99.90;;;;;;5046101;28;20037;-71
2023/01/31 00:51:13;;;;;;;5.28;2.55;;;26.20;99.90;;;;;;5047711;28;20025;-67
2023/01/31 00:53:40;;;;;;;10.75;2.40;;;26.20;99.90;;;;;;5044739;28;20330;-72
2023/01/31 00:56:10;;;;;;;7.28;2.20;;;26.30;99.90;;;;;;5055004;28;20016;-70
2023/01/31 00:58:38;;;;;;;2.70;1.92;;;26.60;99.90;;;;;;5048196;28;20025;-64
2023/01/31 01:01:15;;;;;;;4.18;1.85;;;26.70;99.90;;;;;;5045064;28;20026;-65
2023/01/31 01:03:45;;;;;;;2.60;1.77;;;26.90;99.90;;;;;;5044904;28;20112;-64
2023/01/31 01:06:12;;;;;;;3.75;1.30;;;26.80;99.90;;;;;;5043917;28;20044;-63
2023/01/31 01:08:41;;;;;;;7.68;1.98;;;27.00;99.90;;;;;;5051401;28;20063;-65
2023/01/31 01:11:12;;;;;;;5.75;1.63;;;26.90;99.90;;;;;;5050985;28;20500;-63
2023/01/31 01:13:40;;;;;;;3.45;1.90;;;26.90;99.90;;;;;;5044704;28;20480;-70
2023/01/31 01:16:12;;;;;;;3.47;1.95;;;26.90;99.90;;;;;;5049702;28;20187;-70
2023/01/31 01:18:45;;;;;;;2.38;1.65;;;26.80;99.90;;;;;;5048819;28;20528;-70
2023/01/31 01:21:15;;;;;;;3.92;1.65;;;26.70;99.90;;;;;;5045389;28;20036;-71
2023/01/31 01:23:42;;;;;;;3.45;1.80;;;26.80;99.90;;;;;;5055745;28;20060;-69
2023/01/31 01:26:20;;;;;;;2.95;1.50;;;26.90;99.90;;;;;;5050652;28;20020;-69
2023/01/31 01:28:48;;;;;;;4.47;1.88;;;27.10;99.90;;;;;;5060332;28;20441;-65
2023/01/31 01:31:17;;;;;;;2.50;1.67;;;27.30;99.90;;;;;;5052537;28;20029;-65
2023/01/31 01:33:44;;;;;;;2.63;1.45;;;27.40;99.90;;;;;;5051714;28;20408;-69
2023/01/31 01:36:16;;;;;;;3.38;1.65;;;27.80;99.90;;;;;;5051615;28;20028;-65
2023/01/31 01:38:44;;;;;;;4.28;1.60;;;28.20;99.90;;;;;;5052972;28;20019;-66
2023/01/31 01:41:12;;;;;;;4.15;2.00;;;28.30;99.90;;;;;;5052614;28;20477;-64
2023/01/31 01:44:41;;;;;;;4.38;1.50;;;28.60;99.90;;;;;;5057017;28;20392;-67
2023/01/31 01:47:33;;;;;;;3.53;1.60;;;28.80;99.90;;;;;;4944287;28;20031;-64
2023/01/31 01:50:19;;;;;;;2.50;1.73;;;28.80;99.90;;;;;;4893441;29;20036;-65
2023/01/31 01:52:57;;;;;;;2.67;1.27;;;29.00;99.90;;;;;;4900136;29;20033;-64
2023/01/31 01:55:36;;;;;;;2.72;1.38;;;29.20;99.90;;;;;;4889475;29;20049;-63
2023/01/31 01:58:27;;;;;;;1.42;1.20;;;29.40;99.30;;;;;;4899146;29;20910;-68
2023/01/31 02:00:55;;;;;;;3.92;1.60;;;29.20;99.90;;;;;;4899700;29;20036;-68
2023/01/31 02:03:22;;;;;;;5.85;1.30;;;29.50;99.90;;;;;;4894027;29;20044;-71
2023/01/31 02:05:53;;;;;;;3.25;1.27;;;29.60;99.90;;;;;;4898000;29;20045;-71
2023/01/31 02:08:22;;;;;;;3.95;1.50;;;29.60;99.90;;;;;;4891493;29;20295;-66
2023/01/31 02:11:04;;;;;;;4.47;1.48;;;29.40;99.90;;;;;;4889956;29;20609;-73
2023/01/31 02:13:31;;;;;;;2.40;1.40;;;29.10;99.90;;;;;;4889784;29;20142;-65
2023/01/31 02:16:01;;;;;;;2.33;1.40;;;29.10;99.90;;;;;;4895768;29;20048;-69
2023/01/31 02:18:28;;;;;;;2.85;1.27;;;28.90;99.90;;;;;;4889335;29;20109;-67
2023/01/31 02:21:13;;;;;;;3.45;1.48;;;28.80;99.90;;;;;;4877324;29;20055;-66
2023/01/31 02:24:04;;;;;;;2.90;1.42;;;28.50;99.90;;;;;;4955853;28;20062;-71
2023/01/31 02:27:15;;;;;;;1.90;1.38;;;28.20;99.90;;;;;;5001048;28;20381;-67
2023/01/31 02:29:59;;;;;;;2.90;1.15;;;28.30;99.90;;;;;;4969763;28;20046;-68
2023/01/31 02:32:52;;;;;;;2.97;1.50;;;28.00;99.90;;;;;;4971905;28;20038;-68
2023/01/31 02:35:36;;;;;;;;;;;28.00;99.90;;;;;;4975239;28;20038;-68
2023/01/31 02:38:24;;;;;;;3.05;1.50;;;28.00;99.90;;;;;;4949475;28;19913;-66
2023/01/31 02:41:31;;;;;;;3.28;1.48;;;28.10;99.90;;;;;;4966455;28;20038;-70
2023/01/31 02:48:03;;;;;;;3.15;1.27;;;29.20;99.90;;;;;;4949860;28;20102;-66
2023/01/31 02:50:50;;;;;;;2.17;1.20;;;30.10;99.90;;;;;;4915024;29;20456;-67
2023/01/31 02:53:47;;;;;;;1.85;1.05;;;29.90;98.30;;;;;;4911768;29;20098;-68
2023/01/31 02:56:26;;;;;;;1.92;1.20;;;29.50;99.50;;;;;;4914706;29;20489;-69
2023/01/31 02:59:13;;;;;;;5.38;1.70;;;29.40;99.90;;;;;;4919725;29;20074;-64
2023/01/31 03:01:46;;;;;;;4.88;1.20;;;29.00;99.90;;;;;;4917504;29;20122;-69
2023/01/31 03:04:14;;;;;;;2.63;1.20;;;28.80;99.90;;;;;;4909313;29;20075;-67
2023/01/31 03:06:44;;;;;;;2.72;1.73;;;28.60;99.90;;;;;;4942263;28;20189;-68
2023/01/31 03:09:52;;;;;;;2.30;1.33;;;28.50;99.90;;;;;;4952847;28;20077;-68
2023/01/31 03:12:42;;;;;;;2.42;1.40;;;28.20;99.90;;;;;;4932905;29;20444;-69
2023/01/31 03:18:29;;;;;;;1.60;1.33;;;29.30;99.90;;;;;;4938395;29;20414;-68
2023/01/31 03:21:13;;;;;;;2.55;1.65;;;29.80;99.90;;;;;;4931293;29;20099;-69
2023/01/31 03:23:44;;;;;;;1.88;1.30;;;30.50;99.00;;;;;;4928050;28;20098;-67
2023/01/31 03:26:11;;;;;;;1.38;1.17;;;31.20;98.60;;;;;;4956318;28;20431;-64
2023/01/31 03:28:41;;;;;;;1.42;1.30;;;30.90;97.60;;;;;;4955099;28;20218;-68
2023/01/31 03:31:30;;;;;;;2.72;1.60;;;30.80;98.10;;;;;;4953598;28;20035;-68
2023/01/31 03:34:06;;;;;;;4.07;1.30;;;30.50;98.50;;;;;;4950816;28;20404;-64
2023/01/31 03:36:46;;;;;;;4.05;1.27;;;30.70;98.40;;;;;;4954949;28;20069;-62
2023/01/31 03:39:43;;;;;;;3.30;1.60;;;31.60;97.90;;;;;;4956281;28;20154;-65
2023/01/31 03:42:22;;;;;;;1.50;1.20;;;31.80;97.30;;;;;;4957747;28;20038;-64
2023/01/31 03:45:24;;;;;;;2.90;1.40;;;31.60;98.20;;;;;;4959064;28;20430;-62
2023/01/31 03:47:53;;;;;;;1.63;1.42;;;32.30;97.30;;;;;;4954873;28;20042;-63
2023/01/31 03:50:32;;;;;;;4.30;1.27;;;31.90;97.20;;;;;;5034423;28;20135;-64
2023/01/31 03:53:27;;;;;;;1.45;1.17;;;31.50;97.30;;;;;;5049632;28;20040;-62
2023/01/31 03:56:02;;;;;;;4.30;1.23;;;31.20;97.20;;;;;;5044489;28;20049;-62
2023/01/31 03:58:33;;;;;;;1.38;0.93;;;30.90;97.80;;;;;;5052959;28;20025;-65
2023/01/31 04:01:04;;;;;;;4.03;1.23;;;31.00;98.10;;;;;;5053616;28;20042;-63
2023/01/31 04:03:55;;;;;;;4.53;1.60;;;31.50;97.00;;;;;;5042554;28;20029;-63
2023/01/31 04:06:22;;;;;;;4.53;1.35;;;31.70;96.70;;;;;;5047765;28;20108;-62
2023/01/31 04:08:49;;;;;;;3.30;2.08;;;31.80;96.40;;;;;;5052283;28;20043;-65
2023/01/31 04:11:21;;;;;;;3.15;1.52;;;32.00;96.50;;;;;;5047864;28;20028;-64
2023/01/31 04:13:47;;;;;;;;;;;31.70;96.40;;;;;;5051612;28;20025;-65
2023/01/31 04:16:14;;;;;;;6.65;1.50;;;31.40;96.30;;;;;;5053885;28;19912;-63
2023/01/31 04:18:41;;;;;;;1.13;0.98;;;31.80;96.90;;;;;;5047932;28;20025;-63
2023/01/31 04:21:08;;;;;;;1.50;0.85;;;32.00;95.90;;;;;;5047301;28;20048;-62
2023/01/31 04:23:36;;;;;;;4.78;1.15;;;32.30;95.90;;;;;;5054214;28;20043;-63
2023/01/31 04:26:03;;;;;;;2.28;0.90;;;32.70;96.40;;;;;;5048402;28;20431;-64
2023/01/31 04:28:29;;;;;;;6.05;1.23;;;33.10;95.60;;;;;;5029330;28;20431;-64
2023/01/31 04:30:57;;;;;;;1.55;0.98;;;33.30;95.40;;;;;;5044131;28;20067;-62
2023/01/31 04:33:24;;;;;;;2.92;1.02;;;32.70;95.70;;;;;;5048255;28;20067;-61
2023/01/31 04:35:51;;;;;;;2.15;1.20;;;31.90;95.50;;;;;;5042105;28;20781;-64
2023/01/31 04:38:18;;;;;;;1.48;1.00;;;31.60;96.50;;;;;;5043109;28;20438;-67
2023/01/31 04:40:45;;;;;;;0.90;0.90;;;31.90;95.90;;;;;;5052237;28;20134;-64
2023/01/31 04:43:12;;;;;;;3.70;1.20;;;32.30;95.50;;;;;;5048119;28;20036;-62
2023/01/31 04:45:39;;;;;;;1.60;1.10;;;32.20;95.20;;;;;;5044981;28;20075;-62
2023/01/31 04:48:06;;;;;;;2.05;0.90;;;31.90;96.30;;;;;;5044233;28;20029;-62
2023/01/31 04:50:33;;;;;;;2.08;1.00;;;31.70;95.70;;;;;;5042151;28;20033;-66
2023/01/31 04:53:00;;;;;;;2.50;0.70;;;31.40;95.90;;;;;;5045570;28;20036;-62
2023/01/31 04:55:27;;;;;;;1.27;0.80;;;31.60;95.90;;;;;;5047724;28;20051;-63
2023/01/31 04:57:54;;;;;;;1.60;0.88;;;31.80;95.10;;;;;;5052021;28;20082;-64
2023/01/31 05:00:22;;;;;;;2.60;0.88;;;31.50;95.40;;;;;;5051593;28;20507;-61
2023/01/31 05:02:49;;;;;;;0.85;0.60;;;31.20;95.80;;;;;;5050664;28;20025;-66
2023/01/31 05:05:16;;;;;;;2.35;0.80;;;31.00;96.10;;;;;;5051864;28;20029;-63
2023/01/31 05:07:44;;;;;;;3.17;0.77;;;31.90;96.50;;;;;;5046646;28;20054;-63
2023/01/31 05:10:11;;;;;;;1.20;0.82;;;32.50;95.90;;;;;;5048567;28;20090;-63
2023/01/31 05:12:40;;;;;;;1.30;0.80;;;33.10;95.40;;;;;;5044061;28;20032;-61
2023/01/31 05:15:07;;;;;;;3.38;0.90;;;33.30;94.50;;;;;;5048597;28;20575;-59
2023/01/31 05:17:37;;;;;;;3.72;1.02;;;33.70;93.70;;;;;;5054287;28;20032;-59
2023/01/31 05:20:05;;;;;;;2.33;0.90;;;33.70;93.90;;;;;;5046471;28;20021;-63
2023/01/31 05:22:32;;;;;;;1.85;1.10;;;33.40;93.70;;;;;;5054997;28;20044;-59
2023/01/31 05:24:59;;;;;;;1.13;0.70;;;33.00;94.00;;;;;;5054993;28;20039;-63
2023/01/31 05:27:26;;;;;;;1.02;0.75;;;32.40;94.50;;;;;;5052710;28;20037;-63
2023/01/31 05:29:53;;;;;;;2.88;1.08;;;31.70;94.60;;;;;;5053468;28;20033;-64
2023/01/31 05:32:20;;;;;;;0.93;0.70;;;31.60;95.70;;;;;;5052145;28;20033;-62
2023/01/31 05:34:47;;;;;;;0.80;0.70;;;32.10;94.90;;;;;;5046153;28;20029;-63
2023/01/31 05:37:14;;;;;;;1.02;0.60;;;32.20;95.00;;;;;;5047274;28;20017;-60
2023/01/31 05:39:40;;;;;;;1.95;0.80;;;31.90;94.80;;;;;;5049493;28;20109;-64
2023/01/31 05:42:07;;;;;;;1.42;0.80;;;31.80;94.60;;;;;;5052695;28;20021;-62
2023/01/31 05:44:34;;;;;;;2.05;0.82;;;31.40;95.30;;;;;;5045660;28;20029;-61
2023/01/31 05:47:01;;;;;;;3.60;1.10;;;31.70;95.90;;;;;;5052532;28;20721;-59
2023/01/31 05:49:32;;;;;;;1.38;0.80;;;32.50;94.90;;;;;;5045223;28;20226;-62
2023/01/31 05:52:00;;;;;;;2.22;0.80;;;33.10;94.50;;;;;;5053481;28;20032;-59
2023/01/31 05:54:26;;;;;;;1.35;1.00;;;33.60;93.80;;;;;;5051625;28;20102;-59
2023/01/31 05:56:53;;;;;;;0.80;0.70;;;33.40;93.50;;;;;;5048216;28;20025;-59
2023/01/31 05:59:20;;;;;;;2.60;0.80;;;33.10;93.50;;;;;;5039230;28;20401;-61
2023/01/31 06:01:47;;;;;;;0.95;0.70;;;32.70;94.50;;;;;;5053211;28;20039;-60
2023/01/31 06:04:14;;;;;;;1.90;0.90;;;32.20;94.60;;;;;;5057594;28;20024;-59
2023/01/31 06:06:41;;;;;;;2.28;0.88;;;31.70;95.10;;;;;;5050881;28;20541;-57
2023/01/31 06:09:08;;;;;;;1.08;0.88;;;32.10;94.80;;;;;;5048502;28;20055;-59
2023/01/31 06:11:35;;;;;;;1.42;0.90;;;32.70;94.70;;;;;;5045490;28;20032;-61
2023/01/31 06:14:02;;;;;;;2.00;1.00;;;32.90;94.20;;;;;;5050344;28;20025;-62
2023/01/31 06:16:29;;;;;;;1.48;0.90;;;32.90;94.10;;;;;;5041474;28;20425;-62
2023/01/31 06:18:56;;;;;;;4.28;0.90;;;33.10;93.30;;;;;;5050783;28;20238;-61
2023/01/31 06:21:23;;;;;;;3.05;1.08;;;33.40;94.00;;;;;;5048225;28;20535;-61
2023/01/31 06:23:50;;;;;;;1.90;1.20;;;33.30;94.20;;;;;;5045650;28;20442;-60
2023/01/31 06:26:41;;;;;;;4.47;1.60;;;32.70;95.90;;;;;;5046343;28;20024;-61
2023/01/31 06:29:09;;;;;;;4.88;1.95;;;32.70;96.40;;;;;;5038080;28;20437;-62
2023/01/31 06:31:36;;;;;;;2.70;1.50;;;32.50;96.10;;;;;;5037056;28;20024;-61
2023/01/31 06:34:02;;;;;;;4.70;1.73;;;32.50;96.30;;;;;;5053164;28;20517;-61
2023/01/31 06:36:33;;;;;;;2.58;1.45;;;32.40;97.00;;;;;;5049119;28;20128;-62
2023/01/31 06:39:00;;;;;;;3.85;1.80;;;32.90;95.70;;;;;;5045458;28;20096;-61
2023/01/31 06:41:26;;;;;;;2.22;1.50;;;32.70;95.90;;;;;;5034524;28;20028;-60
2023/01/31 06:43:53;;;;;;;5.60;1.80;;;32.70;95.90;;;;;;5057287;28;20371;-59
2023/01/31 06:46:20;;;;;;;2.97;1.70;;;32.20;96.30;;;;;;5045395;28;20092;-61
2023/01/31 06:48:47;;;;;;;5.82;1.45;;;32.20;96.10;;;;;;5049342;28;20079;-59
2023/01/31 06:51:15;;;;;;;3.28;1.45;;;32.30;96.20;;;;;;5047462;28;20072;-62
2023/01/31 06:53:43;;;;;;;3.40;1.33;;;32.30;96.30;;;;;;5046402;28;20500;-63
2023/01/31 06:56:10;;;;;;;6.10;1.67;;;32.60;95.80;;;;;;5047502;28;20430;-58
2023/01/31 06:58:37;;;;;;;3.53;1.45;;;32.50;95.90;;;;;;5045889;28;20571;-62
2023/01/31 07:01:08;;;;;;;6.00;2.10;;;33.10;95.90;;;;;;5049330;28;20270;-59
2023/01/31 07:03:35;;;;;;;2.88;1.27;;;33.50;95.40;;;;;;5050491;28;20032;-59
2023/01/31 07:06:03;;;;;;;3.92;1.45;;;33.80;94.50;;;;;;5053265;28;20029;-60
2023/01/31 07:08:30;;;;;;;4.05;1.67;;;33.80;94.40;;;;;;5049215;28;20104;-62
2023/01/31 07:11:00;;;;;;;5.25;1.67;;;33.80;94.70;;;;;;5045685;28;20071;-65
2023/01/31 07:13:28;;;;;;;3.17;1.63;;;33.90;94.50;;;;;;5050351;28;20026;-65
2023/01/31 07:15:56;;;;;;;2.97;1.45;;;34.50;94.20;;;;;;5050605;28;20032;-59
2023/01/31 07:18:23;;;;;;;2.75;1.30;;;34.70;93.70;;;;;;5048926;28;20389;-61
2023/01/31 07:20:50;;;;;;;2.40;1.50;;;34.90;93.50;;;;;;5029894;28;20044;-62
2023/01/31 07:23:17;;;;;;;3.83;1.27;;;34.20;93.80;;;;;;5050976;28;20043;-61
2023/01/31 07:25:44;;;;;;;3.33;1.45;;;33.40;94.70;;;;;;5049717;28;20028;-66
2023/01/31 07:28:11;;;;;;;3.22;1.27;;;33.60;94.80;;;;;;5052603;28;20111;-66
2023/01/31 07:30:42;;;;;;;7.07;1.77;;;34.10;93.80;;;;;;5051604;28;20059;-65
2023/01/31 07:33:11;;;;;;;2.78;1.17;;;34.30;94.10;;;;;;5034758;28;20028;-63
2023/01/31 07:35:38;;;;;;;2.75;1.40;;;34.60;93.60;;;;;;5046772;28;20414;-64
2023/01/31 07:38:04;;;;;;;2.33;1.10;;;34.40;93.30;;;;;;5049167;28;20017;-61
2023/01/31 07:40:31;;;;;;;3.85;1.77;;;34.20;93.60;;;;;;5049143;28;20073;-60
2023/01/31 07:42:59;;;;;;;6.80;1.77;;;34.00;93.80;;;;;;5049153;28;20120;-62
2023/01/31 07:45:27;;;;;;;7.43;1.95;;;33.70;94.10;;;;;;5050152;28;20921;-59
2023/01/31 07:47:58;;;;;;;5.65;2.00;;;33.00;95.20;;;;;;5047698;28;20093;-62
2023/01/31 07:50:26;;;;;;;4.97;2.03;;;32.40;95.90;;;;;;5044956;28;20024;-62
2023/01/31 07:52:53;;;;;;;5.07;2.20;;;32.10;96.30;;;;;;5051643;28;20667;-59
2023/01/31 07:55:20;;;;;;;5.25;2.60;;;32.30;96.30;;;;;;5043322;28;20036;-60
2023/01/31 07:57:47;;;;;;;4.72;2.20;;;32.80;95.80;;;;;;5050532;28;20592;-61
2023/01/31 08:05:48;;;;;;;5.50;1.77;;;32.60;95.30;;;;;;5051568;28;20441;-62
2023/01/31 08:08:15;;;;;;;4.32;1.85;;;32.50;95.50;;;;;;5029878;28;20135;-59
2023/01/31 08:10:42;;;;;;;3.53;1.73;;;31.90;95.80;;;;;;5043466;28;20032;-63
2023/01/31 08:13:10;;;;;;;4.07;1.65;;;31.90;95.90;;;;;;5044906;28;20040;-63
2023/01/31 08:15:37;;;;;;;4.35;1.55;;;32.00;96.20;;;;;;5049442;28;20029;-66
2023/01/31 08:18:04;;;;;;;5.07;1.58;;;32.30;95.60;;;;;;5043184;28;20401;-65
2023/01/31 08:20:31;;;;;;;5.47;1.27;;;32.00;95.60;;;;;;5040992;28;20087;-61
2023/01/31 08:22:58;;;;;;;4.72;1.42;;;31.60;95.70;;;;;;5039782;28;20037;-61
2023/01/31 08:25:30;;;;;;;3.35;1.73;;;31.40;95.90;;;;;;5046600;28;20029;-60
2023/01/31 08:28:00;;;;;;;2.80;1.33;;;31.30;96.10;;;;;;5042987;28;20033;-62
2023/01/31 08:30:28;;;;;;;3.67;1.10;;;31.40;96.00;;;;;;5047414;28;20444;-61
2023/01/31 08:32:55;;;;;;;2.08;1.02;;;31.30;95.70;;;;;;5040577;28;20590;-60
2023/01/31 08:35:24;;;;;;;2.45;1.23;;;30.60;96.20;;;;;;5043392;28;20076;-60
2023/01/31 08:37:51;;;;;;;3.45;1.17;;;29.90;97.00;;;;;;5045153;28;20025;-60
2023/01/31 08:40:18;;;;;;;1.77;1.10;;;29.00;97.70;;;;;;5043903;28;20124;-65
2023/01/31 08:42:57;;;;;;;3.50;0.90;;;28.30;98.20;;;;;;5044649;28;20032;-59
2023/01/31 08:45:24;;;;;;;4.07;1.10;;;27.50;99.10;;;;;;5046821;28;20726;-59
2023/01/31 08:47:59;;;;;;;3.42;1.40;;;27.00;99.70;;;;;;5053959;28;20028;-62
2023/01/31 08:50:30;;;;;;;3.58;1.52;;;26.40;99.90;;;;;;5046178;28;20549;-59
2023/01/31 08:53:00;;;;;;;7.97;2.10;;;26.10;99.90;;;;;;5049690;28;20063;-63
2023/01/31 08:55:29;;;;;;;7.03;2.08;;;25.80;99.90;;;;;;5047381;28;20025;-65
2023/01/31 08:57:57;;;;;;;11.63;2.15;;;25.60;99.90;;;;;;5046069;28;20028;-65
2023/01/31 09:00:24;;;;;;;6.55;2.08;;;25.40;99.90;;;;;;5047241;28;20016;-60
2023/01/31 09:02:52;;;;;;;7.18;2.20;;;25.10;99.90;;;;;;5045334;28;20050;-63
2023/01/31 09:05:20;;;;;;;7.30;1.95;;;24.90;99.90;;;;;;5047477;28;20432;-60
2023/01/31 09:07:47;;;;;;;8.18;2.20;;;24.80;99.90;;;;;;5048533;28;20560;-59
2023/01/31 09:10:14;;;;;;;9.85;3.05;;;24.70;99.90;;;;;;5047222;28;20291;-62
2023/01/31 09:12:40;;;;;;;10.32;2.58;;;24.60;99.90;;;;;;5042230;28;20121;-61
2023/01/31 09:15:08;;;;;;;6.28;2.20;;;24.40;99.90;;;;;;5045856;28;20549;-60
2023/01/31 09:17:35;;;;;;;7.68;2.45;;;24.30;99.90;;;;;;5050600;28;20021;-60
2023/01/31 09:20:05;;;;;;;8.82;2.33;;;24.20;99.90;;;;;;5044051;28;20376;-62
2023/01/31 09:22:36;;;;;;;9.63;2.30;;;24.10;99.90;;;;;;5047625;28;20052;-63
2023/01/31 09:25:03;;;;;;;9.45;2.55;;;24.00;99.90;;;;;;5048063;28;20220;-61
2023/01/31 09:27:30;;;;;;;7.03;2.35;;;23.80;99.90;;;;;;5049514;28;20029;-64
2023/01/31 09:29:57;;;;;;;9.30;2.58;;;23.80;99.90;;;;;;5048309;28;20057;-64
2023/01/31 09:32:24;;;;;;;10.27;3.25;;;23.60;99.90;;;;;;5045930;28;20061;-63
2023/01/31 09:34:51;;;;;;;8.77;2.80;;;23.60;99.90;;;;;;5050316;28;20557;-65
2023/01/31 09:37:18;;;;;;;8.52;2.38;;;23.60;99.90;;;;;;5045625;28;20036;-60
2023/01/31 09:39:45;;;;;;;10.52;2.58;;;23.50;99.90;;;;;;5044004;28;20116;-64
2023/01/31 09:42:33;;;;;;;6.40;2.65;;;23.40;99.90;;;;;;5041523;28;20509;-60
2023/01/31 09:45:12;;;;;;;8.45;2.30;;;23.30;99.90;;;;;;5043348;28;20863;-60
2023/01/31 09:47:48;;;;;;;8.68;2.63;;;23.30;99.90;;;;;;5049745;28;20033;-68
2023/01/31 09:50:31;;;;;;;8.15;2.50;;;23.30;99.90;;;;;;5058160;28;20349;-67
2023/01/31 09:52:58;;;;;;;8.52;2.22;;;23.20;99.90;;;;;;5051942;28;20068;-67
2023/01/31 09:55:57;;;;;;;6.88;3.05;;;23.20;99.90;;;;;;5054181;28;20179;-59
2023/01/31 09:58:30;;;;;;;31.27;10.48;;;23.10;99.90;;;;;;4975965;28;20380;-66
2023/01/31 10:01:03;;;;;;;35.28;11.45;;;23.00;99.90;;;;;;4980396;28;20039;-66
2023/01/31 10:03:41;;;;;;;180.32;51.38;;;22.90;99.90;;;;;;4983570;28;20050;-67
2023/01/31 10:06:17;;;;;;;12.18;3.92;;;22.90;99.90;;;;;;4985311;28;20058;-62
2023/01/31 10:09:03;;;;;;;118.68;33.80;;;22.80;99.90;;;;;;4977620;28;20042;-60
2023/01/31 10:11:50;;;;;;;17.95;6.35;;;22.90;99.90;;;;;;4975744;28;20044;-61
2023/01/31 10:14:39;;;;;;;17.92;5.07;;;22.80;99.90;;;;;;4990797;28;20085;-61
2023/01/31 10:17:09;;;;;;;12.40;4.35;;;22.80;99.90;;;;;;4983327;28;20403;-69
2023/01/31 10:19:46;;;;;;;12.07;3.92;;;22.90;99.90;;;;;;4983055;28;20471;-60
2023/01/31 10:22:25;;;;;;;11.43;4.68;;;22.80;99.90;;;;;;5057192;22;20175;-64
2023/01/31 10:25:02;;;;;;;23.25;7.50;;;22.70;99.90;;;;;;5042877;28;20440;-69
2023/01/31 10:28:04;;;;;;;20.58;7.55;;;22.80;99.90;;;;;;5042100;28;20028;-70
2023/01/31 10:30:47;;;;;;;10.50;1.98;;;22.80;99.90;;;;;;4939329;28;20035;-70
2023/01/31 10:33:40;;;;;;;9.93;2.42;;;22.80;99.90;;;;;;4944053;28;20105;-71
2023/01/31 10:36:15;;;;;;;;;;;22.80;99.90;;;;;;4944055;28;20510;-61
2023/01/31 10:39:02;;;;;;;7.80;2.72;;;22.80;99.90;;;;;;4943310;29;20295;-72
2023/01/31 10:41:46;;;;;;;4.25;1.77;;;22.60;99.90;;;;;;4944033;28;20039;-62
2023/01/31 10:44:25;;;;;;;2.47;1.05;;;22.60;99.90;;;;;;4943839;29;20547;-62
2023/01/31 10:46:57;;;;;;;9.50;1.60;;;22.70;99.90;;;;;;4944696;29;20039;-61
2023/01/31 10:49:26;;;;;;;4.97;2.00;;;22.50;99.90;;;;;;4945238;28;20058;-61
2023/01/31 10:52:05;;;;;;;6.50;1.90;;;22.50;99.90;;;;;;4948233;28;20062;-60
2023/01/31 10:54:32;;;;;;;3.70;1.52;;;22.50;99.90;;;;;;4949935;28;20171;-69
2023/01/31 10:56:59;;;;;;;3.22;1.52;;;22.50;99.90;;;;;;4949378;28;20122;-67
2023/01/31 10:59:35;;;;;;;4.38;1.38;;;22.40;99.90;;;;;;4948891;28;20048;-61
2023/01/31 11:02:03;;;;;;;5.88;1.50;;;22.40;99.90;;;;;;4946285;29;20035;-66
2023/01/31 11:04:42;;;;;;;2.90;1.30;;;22.40;99.90;;;;;;4952231;28;20069;-61
2023/01/31 11:07:09;;;;;;;4.13;1.00;;;22.30;99.90;;;;;;5037153;28;20041;-62
2023/01/31 11:09:47;;;;;;;4.60;1.25;;;22.40;99.90;;;;;;5046670;28;20548;-61
2023/01/31 11:12:14;;;;;;;3.00;0.98;;;22.30;99.90;;;;;;5041140;28;20055;-61
2023/01/31 11:14:41;;;;;;;2.28;1.02;;;22.30;99.90;;;;;;5046591;28;20503;-61
2023/01/31 11:17:20;;;;;;;4.15;1.17;;;22.20;99.90;;;;;;5046771;28;20020;-68
2023/01/31 11:19:50;;;;;;;3.88;1.20;;;22.20;99.90;;;;;;5045332;28;20020;-68
2023/01/31 11:22:30;;;;;;;3.58;1.15;;;22.10;99.90;;;;;;5046199;28;20051;-66
2023/01/31 11:24:59;;;;;;;5.05;1.85;;;22.10;99.90;;;;;;5046225;28;20103;-67
2023/01/31 11:27:26;;;;;;;4.63;1.10;;;22.10;99.90;;;;;;5046775;28;20363;-67
2023/01/31 11:29:56;;;;;;;2.35;1.00;;;22.00;99.90;;;;;;5043609;28;20276;-68
2023/01/31 11:32:30;;;;;;;3.20;1.17;;;22.00;99.90;;;;;;5045790;28;20029;-62
2023/01/31 11:35:24;;;;;;;3.90;1.38;;;21.90;99.90;;;;;;5046588;28;20017;-62
2023/01/31 11:37:53;;;;;;;3.90;1.42;;;21.80;99.90;;;;;;5045488;28;20036;-62
2023/01/31 11:40:32;;;;;;;3.38;1.20;;;21.80;99.90;;;;;;5040174;28;20037;-68
2023/01/31 11:43:02;;;;;;;3.47;1.40;;;21.70;99.90;;;;;;5041894;28;20075;-67
2023/01/31 11:45:36;;;;;;;2.50;1.42;;;21.70;99.90;;;;;;5048853;28;20025;-67
2023/01/31 11:48:19;;;;;;;5.78;1.80;;;21.50;99.90;;;;;;5044349;28;20584;-68
2023/01/31 11:50:54;;;;;;;3.67;1.48;;;21.50;99.90;;;;;;5042650;28;20256;-61
2023/01/31 11:53:49;;;;;;;4.75;1.55;;;21.50;99.90;;;;;;5043680;28;20080;-69
2023/01/31 11:56:24;;;;;;;2.67;1.20;;;21.30;99.90;;;;;;5041351;28;20036;-61
2023/01/31 11:59:02;;;;;;;5.50;1.50;;;21.10;99.90;;;;;;5044025;28;20021;-61
2023/01/31 12:01:31;;;;;;;4.75;1.88;;;21.10;99.90;;;;;;5044744;28;20117;-67
2023/01/31 12:04:04;;;;;;;5.65;1.20;;;21.00;99.90;;;;;;5043767;28;20450;-61
2023/01/31 12:06:35;;;;;;;3.92;1.30;;;20.90;99.90;;;;;;5043822;28;20196;-68
2023/01/31 12:09:05;;;;;;;3.95;1.33;;;20.90;99.90;;;;;;5044517;28;20025;-68
2023/01/31 12:11:35;;;;;;;2.47;1.30;;;21.00;99.90;;;;;;5041861;28;20013;-66
2023/01/31 12:14:15;;;;;;;10.00;2.03;;;20.90;99.90;;;;;;5042416;28;20029;-62
2023/01/31 12:16:44;;;;;;;6.45;1.60;;;21.00;99.90;;;;;;5042388;28;20414;-68
2023/01/31 12:19:14;;;;;;;5.43;2.05;;;21.10;99.90;;;;;;5042544;28;20029;-68
2023/01/31 12:22:06;;;;;;;7.15;1.88;;;21.10;99.90;;;;;;5042622;28;20049;-65
2023/01/31 12:24:42;;;;;;;7.20;2.00;;;21.20;99.90;;;;;;5043711;28;20032;-61
2023/01/31 12:28:00;;;;;;;10.18;2.15;;;21.10;99.90;;;;;;5043865;28;20033;-68
2023/01/31 12:30:38;;;;;;;4.35;1.45;;;21.10;99.90;;;;;;5045363;28;20060;-68
2023/01/31 12:33:23;;;;;;;3.70;1.50;;;21.10;99.90;;;;;;5043740;28;20492;-60
2023/01/31 12:36:14;;;;;;;3.90;1.30;;;21.10;99.90;;;;;;5044297;28;20055;-62
2023/01/31 12:39:24;;;;;;;7.53;2.08;;;21.10;99.90;;;;;;5044690;28;20255;-61
2023/01/31 12:42:04;;;;;;;4.88;1.95;;;21.10;99.90;;;;;;4951514;28;20046;-66
2023/01/31 12:44:59;;;;;;;4.55;1.73;;;21.00;99.90;;;;;;4957256;28;20038;-62
2023/01/31 12:47:46;;;;;;;5.03;1.80;;;21.00;99.90;;;;;;4955234;28;20050;-66
2023/01/31 12:50:27;;;;;;;6.78;1.83;;;20.90;99.90;;;;;;4955837;28;20436;-63
2023/01/31 12:52:59;;;;;;;7.20;1.33;;;20.90;99.90;;;;;;4952981;28;20042;-62
2023/01/31 12:55:35;;;;;;;3.08;1.27;;;20.80;99.90;;;;;;4947197;28;20035;-67
2023/01/31 12:58:15;;;;;;;5.07;2.00;;;20.80;99.90;;;;;;4953389;28;20422;-70
2023/01/31 13:01:43;;;;;;;5.90;1.70;;;20.80;99.90;;;;;;4953981;28;20047;-62
2023/01/31 13:04:30;;;;;;;6.60;1.15;;;20.70;99.90;;;;;;4813825;29;20210;-66
2023/01/31 13:07:02;;;;;;;4.63;1.20;;;20.60;99.90;;;;;;4813976;29;20070;-66
2023/01/31 13:09:35;;;;;;;4.78;1.70;;;20.70;99.90;;;;;;4814475;29;20045;-69
2023/01/31 13:12:02;;;;;;;5.18;1.60;;;20.80;99.90;;;;;;4811760;29;20042;-66
2023/01/31 13:14:34;;;;;;;6.93;1.40;;;20.70;99.90;;;;;;4813206;29;20505;-62
2023/01/31 13:17:05;;;;;;;3.30;1.45;;;20.70;99.90;;;;;;4815620;29;20591;-63
2023/01/31 13:19:48;;;;;;;5.13;1.95;;;20.70;99.90;;;;;;4857986;29;20044;-63
2023/01/31 13:22:27;;;;;;;4.55;1.50;;;20.60;99.90;;;;;;4873064;29;20048;-62
2023/01/31 13:25:18;;;;;;;6.15;2.40;;;20.60;99.90;;;;;;4871520;29;20470;-65
2023/01/31 13:28:05;;;;;;;3.17;1.85;;;20.60;99.90;;;;;;4875268;29;20052;-63
2023/01/31 13:30:38;;;;;;;3.60;1.25;;;20.60;99.90;;;;;;4873475;29;20486;-62
2023/01/31 13:33:14;;;;;;;;;;;20.70;99.90;;;;;;4872470;29;20491;-69